Time;durP1;ratioP1;P1;durP2;ratioP2;P2;SDS_P1;SDS_P2;PMS_P1;PMS_P2;Temp;Humidity;BMP_temperature;BMP_pressure;BME280_temperature;BME280_humidity;BME280_pressure;Samples;Min_cycle;Max_cycle;Signal;HPM_P1;HPM_P2
2023/06/28 00:01:54;;;;;;;;;;;;;;;16.95;nan;98127.41;5002369;28;19971;-63
2023/06/28 00:04:21;;;;;;;;;;;;;;;16.89;nan;98133.47;5001101;28;19932;-63
2023/06/28 00:06:51;;;;;;;;;;;;;;;16.72;nan;98124.38;5004556;28;19937;-63
2023/06/28 00:09:19;;;;;;;;;;;;;;;16.98;nan;98117.66;5002969;28;19926;-63
2023/06/28 00:11:47;;;;;;;;;;;;;;;16.93;nan;98112.41;4987927;28;19932;-64
2023/06/28 00:14:14;;;;;;;;;;;;;;;16.98;nan;98115.69;4992590;28;20337;-63
2023/06/28 00:16:42;;;;;;;;;;;;;;;16.86;nan;98125.94;5004353;28;19929;-63
2023/06/28 00:19:10;;;;;;;;;;;;;;;16.97;nan;98124.28;5003561;28;19926;-64
2023/06/28 00:21:38;;;;;;;;;;;;;;;16.80;nan;98122.63;5005687;28;20020;-63
2023/06/28 00:24:07;;;;;;;;;;;;;;;16.86;nan;98131.41;5006926;28;19925;-64
2023/06/28 00:26:35;;;;;;;;;;;;;;;16.84;nan;98118.06;4991960;28;20029;-64
2023/06/28 00:29:04;;;;;;;;;;;;;;;16.80;nan;98125.38;5007701;28;19948;-63
2023/06/28 00:31:32;;;;;;;;;;;;;;;16.69;nan;98130.50;4988400;28;19976;-62
2023/06/28 00:34:02;;;;;;;;;;;;;;;17.00;nan;98135.38;4989060;28;19933;-63
2023/06/28 00:36:30;;;;;;;;;;;;;;;16.90;nan;98130.38;4985919;28;19925;-63
2023/06/28 00:39:03;;;;;;;;;;;;;;;16.81;nan;98121.47;4989174;28;19925;-65
2023/06/28 00:41:33;;;;;;;;;;;;;;;16.77;nan;98126.84;5007344;28;21278;-62
2023/06/28 00:44:02;;;;;;;;;;;;;;;16.49;nan;98128.72;5003282;28;19930;-64
2023/06/28 00:46:30;;;;;;;;;;;;;;;16.55;nan;98134.75;4991083;28;20362;-65
2023/06/28 00:48:59;;;;;;;;;;;;;;;16.65;nan;98129.59;4988367;28;20325;-64
2023/06/28 00:51:27;;;;;;;;;;;;;;;16.68;nan;98128.91;4991444;28;19976;-64
2023/06/28 00:53:57;;;;;;;;;;;;;;;16.68;nan;98128.91;5007803;28;19949;-63
2023/06/28 00:56:25;;;;;;;;;;;;;;;16.71;nan;98133.72;4990405;28;20384;-63
2023/06/28 00:58:54;;;;;;;;;;;;;;;16.61;nan;98134.16;5006506;28;20319;-63
2023/06/28 01:01:23;;;;;;;;;;;;;;;16.84;nan;98128.22;4990376;28;19976;-63
2023/06/28 01:03:53;;;;;;;;;;;;;;;16.78;nan;98122.19;5002688;28;20383;-65
2023/06/28 01:06:21;;;;;;;;;;;;;;;16.72;nan;98121.63;4996024;28;20016;-64
2023/06/28 01:08:49;;;;;;;;;;;;;;;16.44;nan;98129.72;4991004;28;20458;-64
2023/06/28 01:11:17;;;;;;;;;;;;;;;16.41;nan;98135.13;4986583;28;19932;-63
2023/06/28 01:13:45;;;;;;;;;;;;;;;16.63;nan;98134.63;5005099;28;19955;-64
2023/06/28 01:16:14;;;;;;;;;;;;;;;16.52;nan;98146.44;4990886;28;19929;-64
2023/06/28 01:18:42;;;;;;;;;;;;;;;16.66;nan;98152.34;5008738;28;19926;-63
2023/06/28 01:21:10;;;;;;;;;;;;;;;16.64;nan;98154.63;4990262;28;19964;-63
2023/06/28 01:23:39;;;;;;;;;;;;;;;16.71;nan;98150.19;4997328;28;19980;-64
2023/06/28 01:26:07;;;;;;;;;;;;;;;16.60;nan;98140.81;5003451;28;19934;-63
2023/06/28 01:28:35;;;;;;;;;;;;;;;16.46;nan;98143.91;4984424;28;19972;-64
2023/06/28 01:31:04;;;;;;;;;;;;;;;16.46;nan;98148.59;4993171;28;19930;-64
2023/06/28 01:33:33;;;;;;;;;;;;;;;16.36;nan;98152.59;4986322;28;19930;-63
2023/06/28 01:36:01;;;;;;;;;;;;;;;16.20;nan;98154.44;5004266;28;19925;-64
2023/06/28 01:38:29;;;;;;;;;;;;;;;16.35;nan;98156.50;4988433;28;19926;-63
2023/06/28 01:40:58;;;;;;;;;;;;;;;16.44;nan;98159.09;4989505;28;19956;-65
2023/06/28 01:43:26;;;;;;;;;;;;;;;16.33;nan;98164.25;4991804;28;20012;-64
2023/06/28 01:45:56;;;;;;;;;;;;;;;16.23;nan;98161.97;4994053;28;19925;-63
2023/06/28 01:48:24;;;;;;;;;;;;;;;16.26;nan;98161.28;5004774;28;19926;-63
2023/06/28 01:50:52;;;;;;;;;;;;;;;16.15;nan;98160.94;4992744;28;19933;-63
2023/06/28 01:53:21;;;;;;;;;;;;;;;16.28;nan;98166.41;4989599;28;19925;-63
2023/06/28 01:55:48;;;;;;;;;;;;;;;16.40;nan;98160.94;4995629;28;20375;-64
2023/06/28 01:58:19;;;;;;;;;;;;;;;16.33;nan;98163.44;4991429;28;20392;-64
2023/06/28 02:00:47;;;;;;;;;;;;;;;16.45;nan;98157.94;4995088;28;19934;-62
2023/06/28 02:03:15;;;;;;;;;;;;;;;16.48;nan;98157.28;4993763;28;19972;-63
2023/06/28 02:05:44;;;;;;;;;;;;;;;16.52;nan;98152.72;4993929;28;19929;-63
2023/06/28 02:08:11;;;;;;;;;;;;;;;16.44;nan;98150.88;4990581;28;19926;-64
2023/06/28 02:10:39;;;;;;;;;;;;;;;16.64;nan;98152.69;5002061;28;19926;-64
2023/06/28 02:13:07;;;;;;;;;;;;;;;16.52;nan;98152.72;4991438;28;19934;-62
2023/06/28 02:15:36;;;;;;;;;;;;;;;16.68;nan;98142.63;5007262;28;19926;-63
2023/06/28 02:18:05;;;;;;;;;;;;;;;16.44;nan;98151.69;4991872;28;19945;-63
2023/06/28 02:20:32;;;;;;;;;;;;;;;16.47;nan;98145.50;5005057;28;19993;-64
2023/06/28 02:23:03;;;;;;;;;;;;;;;16.50;nan;98144.00;5009549;28;19964;-63
2023/06/28 02:25:31;;;;;;;;;;;;;;;16.52;nan;98149.19;5009118;28;20021;-67
2023/06/28 02:27:58;;;;;;;;;;;;;;;16.58;nan;98148.59;4993461;28;19949;-63
2023/06/28 02:30:26;;;;;;;;;;;;;;;16.57;nan;98143.47;5003860;28;19984;-64
2023/06/28 02:32:55;;;;;;;;;;;;;;;16.57;nan;98146.19;4995387;28;19964;-63
2023/06/28 02:35:23;;;;;;;;;;;;;;;16.53;nan;98146.09;4994283;28;19976;-63
2023/06/28 02:37:51;;;;;;;;;;;;;;;16.57;nan;98148.94;5006281;28;19929;-64
2023/06/28 02:40:19;;;;;;;;;;;;;;;16.44;nan;98145.41;5004872;28;19930;-63
2023/06/28 02:42:48;;;;;;;;;;;;;;;16.41;nan;98157.06;4994282;28;20016;-65
2023/06/28 02:45:16;;;;;;;;;;;;;;;16.50;nan;98160.47;4994431;28;19925;-63
2023/06/28 02:47:44;;;;;;;;;;;;;;;16.51;nan;98159.31;4990119;28;19930;-63
2023/06/28 02:50:13;;;;;;;;;;;;;;;16.51;nan;98167.53;4988807;28;20009;-64
2023/06/28 02:53:04;;;;;;;;;;;;;;;16.68;nan;98167.31;5009414;28;20024;-63
2023/06/28 02:55:34;;;;;;;;;;;;;;;16.41;nan;98171.56;4997567;28;19933;-63
2023/06/28 02:58:05;;;;;;;;;;;;;;;16.60;nan;98168.22;4987511;28;19986;-63
2023/06/28 03:00:37;;;;;;;;;;;;;;;16.63;nan;98167.56;4990692;28;20025;-63
2023/06/28 03:03:09;;;;;;;;;;;;;;;16.33;nan;98172.47;4998609;28;19929;-63
2023/06/28 03:05:42;;;;;;;;;;;;;;;16.58;nan;98176.03;4990833;28;19976;-66
2023/06/28 03:08:10;;;;;;;;;;;;;;;16.50;nan;98174.19;5003625;28;20429;-63
2023/06/28 03:10:38;;;;;;;;;;;;;;;16.57;nan;98171.69;4987762;28;19926;-62
2023/06/28 03:13:06;;;;;;;;;;;;;;;16.37;nan;98172.59;5005547;28;19925;-63
2023/06/28 03:15:34;;;;;;;;;;;;;;;16.63;nan;98172.25;4999348;28;19967;-63
2023/06/28 03:18:02;;;;;;;;;;;;;;;16.56;nan;98175.53;4988143;28;19956;-63
2023/06/28 03:20:30;;;;;;;;;;;;;;;16.48;nan;98168.25;4984888;28;19929;-63
2023/06/28 03:22:59;;;;;;;;;;;;;;;16.62;nan;98176.09;4992320;28;19971;-71
2023/06/28 03:25:28;;;;;;;;;;;;;;;16.61;nan;98175.31;4988428;28;19925;-63
2023/06/28 03:27:56;;;;;;;;;;;;;;;16.70;nan;98173.25;4999802;28;19965;-63
2023/06/28 03:30:24;;;;;;;;;;;;;;;16.81;nan;98175.56;5007785;28;19948;-63
2023/06/28 03:32:52;;;;;;;;;;;;;;;16.58;nan;98177.97;4991398;28;19929;-64
2023/06/28 03:35:20;;;;;;;;;;;;;;;16.75;nan;98178.53;5009220;28;20020;-63
2023/06/28 03:37:51;;;;;;;;;;;;;;;16.68;nan;98182.97;5007290;28;19925;-63
2023/06/28 03:40:20;;;;;;;;;;;;;;;16.73;nan;98180.03;4991248;28;20302;-64
2023/06/28 03:42:48;;;;;;;;;;;;;;;16.47;nan;98189.38;5005285;28;19976;-62
2023/06/28 03:45:16;;;;;;;;;;;;;;;16.37;nan;98181.63;4987964;28;19930;-63
2023/06/28 03:47:46;;;;;;;;;;;;;;;16.26;nan;98182.41;4993267;28;19929;-63
2023/06/28 03:50:14;;;;;;;;;;;;;;;16.39;nan;98175.78;4984263;28;20279;-62
2023/06/28 03:52:42;;;;;;;;;;;;;;;16.39;nan;98186.75;5004267;28;20041;-63
2023/06/28 03:55:12;;;;;;;;;;;;;;;16.54;nan;98188.81;4995369;28;20321;-63
2023/06/28 03:57:41;;;;;;;;;;;;;;;16.50;nan;98185.16;4993714;28;19981;-63
2023/06/28 04:00:10;;;;;;;;;;;;;;;16.58;nan;98184.25;4984354;28;19933;-65
2023/06/28 04:02:44;;;;;;;;;;;;;;;16.60;nan;98187.44;5004673;28;20036;-63
2023/06/28 04:05:12;;;;;;;;;;;;;;;16.52;nan;98193.84;5005692;28;19965;-63
2023/06/28 04:07:40;;;;;;;;;;;;;;;16.52;nan;98190.31;5009170;28;19965;-62
2023/06/28 04:10:08;;;;;;;;;;;;;;;16.61;nan;98186.28;4999407;28;19933;-63
2023/06/28 04:12:36;;;;;;;;;;;;;;;16.69;nan;98188.13;4999348;28;20450;-64
2023/06/28 04:15:07;;;;;;;;;;;;;;;16.70;nan;98186.97;4992988;28;19984;-63
2023/06/28 04:17:35;;;;;;;;;;;;;;;16.68;nan;98194.75;5003092;28;19933;-63
2023/06/28 04:20:05;;;;;;;;;;;;;;;16.69;nan;98188.13;4988156;28;19957;-63
2023/06/28 04:22:34;;;;;;;;;;;;;;;16.64;nan;98187.56;5006284;28;19929;-64
2023/06/28 04:25:02;;;;;;;;;;;;;;;16.66;nan;98191.53;5007223;28;19956;-63
2023/06/28 04:27:30;;;;;;;;;;;;;;;16.80;nan;98185.72;4995103;28;20379;-63
2023/06/28 04:29:57;;;;;;;;;;;;;;;16.76;nan;98185.63;5006154;28;19932;-67
2023/06/28 04:32:27;;;;;;;;;;;;;;;16.72;nan;98187.47;5003629;28;19952;-63
2023/06/28 04:34:56;;;;;;;;;;;;;;;16.67;nan;98182.19;5008042;28;20287;-64
2023/06/28 04:37:27;;;;;;;;;;;;;;;16.79;nan;98194.31;4986450;28;19932;-63
2023/06/28 04:39:55;;;;;;;;;;;;;;;16.79;nan;98194.31;5008113;28;19965;-66
2023/06/28 04:42:23;;;;;;;;;;;;;;;16.85;nan;98204.72;5001897;28;20481;-63
2023/06/28 04:44:51;;;;;;;;;;;;;;;16.85;nan;98193.72;4988813;28;19933;-62
2023/06/28 04:47:19;;;;;;;;;;;;;;;16.65;nan;98192.69;4988410;28;20025;-64
2023/06/28 04:49:48;;;;;;;;;;;;;;;16.64;nan;98198.53;5006821;28;20003;-63
2023/06/28 04:52:16;;;;;;;;;;;;;;;16.76;nan;98206.78;5001657;28;20036;-63
2023/06/28 04:54:44;;;;;;;;;;;;;;;16.81;nan;98200.25;5001997;28;20020;-63
2023/06/28 04:57:12;;;;;;;;;;;;;;;16.73;nan;98196.50;5006838;28;20322;-64
2023/06/28 04:59:40;;;;;;;;;;;;;;;16.75;nan;98196.94;5003878;28;19925;-62
2023/06/28 05:02:09;;;;;;;;;;;;;;;16.90;nan;98198.19;5004726;28;20008;-63
2023/06/28 05:04:37;;;;;;;;;;;;;;;16.50;nan;98194.16;5003783;28;19932;-63
2023/06/28 05:07:07;;;;;;;;;;;;;;;16.63;nan;98203.22;4999049;28;20423;-63
2023/06/28 05:09:35;;;;;;;;;;;;;;;16.65;nan;98195.44;4990007;28;20012;-63
2023/06/28 05:12:03;;;;;;;;;;;;;;;16.53;nan;98197.38;5005710;28;20461;-63
2023/06/28 05:14:34;;;;;;;;;;;;;;;16.77;nan;98200.94;5004308;28;19929;-64
2023/06/28 05:17:02;;;;;;;;;;;;;;;16.98;nan;98197.25;5005330;28;19984;-68
2023/06/28 05:19:29;;;;;;;;;;;;;;;17.03;nan;98188.78;5002544;28;20031;-66
2023/06/28 05:21:57;;;;;;;;;;;;;;;17.17;nan;98199.38;5009821;28;20636;-65
2023/06/28 05:24:26;;;;;;;;;;;;;;;17.42;nan;98194.63;4991297;28;20359;-66
2023/06/28 05:26:55;;;;;;;;;;;;;;;17.20;nan;98196.72;5009738;28;20267;-64
2023/06/28 05:29:22;;;;;;;;;;;;;;;17.22;nan;98191.69;5002915;28;20299;-66
2023/06/28 05:31:50;;;;;;;;;;;;;;;17.07;nan;98195.16;5000948;28;19941;-66
2023/06/28 05:34:18;;;;;;;;;;;;;;;17.08;nan;98198.72;5003494;28;19976;-66
2023/06/28 05:36:45;;;;;;;;;;;;;;;17.06;nan;98190.84;5006773;28;20012;-66
2023/06/28 05:39:13;;;;;;;;;;;;;;;17.07;nan;98195.16;5009797;28;20290;-67
2023/06/28 05:41:44;;;;;;;;;;;;;;;17.13;nan;98180.06;4989896;28;20438;-66
2023/06/28 05:44:15;;;;;;;;;;;;;;;17.39;nan;98176.88;5005827;28;20020;-66
2023/06/28 05:46:42;;;;;;;;;;;;;;;17.44;nan;98181.31;5010161;28;19926;-66
2023/06/28 05:49:10;;;;;;;;;;;;;;;17.50;nan;98182.66;4988682;28;20068;-66
2023/06/28 05:51:38;;;;;;;;;;;;;;;17.66;nan;98178.00;5005703;28;19964;-66
2023/06/28 05:54:06;;;;;;;;;;;;;;;17.66;nan;98175.25;5007265;28;20032;-67
2023/06/28 05:56:33;;;;;;;;;;;;;;;17.71;nan;98180.50;4996528;28;19940;-66
2023/06/28 05:59:03;;;;;;;;;;;;;;;17.61;nan;98186.50;4993871;28;19929;-67
2023/06/28 06:01:33;;;;;;;;;;;;;;;17.76;nan;98180.28;5010344;28;19925;-66
2023/06/28 06:04:01;;;;;;;;;;;;;;;17.84;nan;98178.50;5004887;28;19933;-68
2023/06/28 06:06:29;;;;;;;;;;;;;;;18.02;nan;98179.00;5009104;28;19957;-66
2023/06/28 06:08:56;;;;;;;;;;;;;;;17.90;nan;98181.81;5004025;28;20342;-67
2023/06/28 06:11:26;;;;;;;;;;;;;;;17.92;nan;98187.75;5009111;28;20339;-66
2023/06/28 06:13:56;;;;;;;;;;;;;;;17.83;nan;98184.38;4990337;28;20363;-66
2023/06/28 06:16:26;;;;;;;;;;;;;;;17.56;nan;98178.50;5007664;28;19925;-67
2023/06/28 06:18:53;;;;;;;;;;;;;;;17.58;nan;98180.91;5010304;28;20437;-67
2023/06/28 06:21:21;;;;;;;;;;;;;;;17.82;nan;98180.81;5003795;28;20031;-68
2023/06/28 06:23:49;;;;;;;;;;;;;;;17.94;nan;98182.69;5006333;28;19926;-66
2023/06/28 06:26:16;;;;;;;;;;;;;;;18.16;nan;98184.84;5010268;28;19972;-66
2023/06/28 06:28:44;;;;;;;;;;;;;;;18.14;nan;98187.16;4997741;28;19961;-66
2023/06/28 06:31:15;;;;;;;;;;;;;;;18.27;nan;98185.91;4986498;28;20015;-66
2023/06/28 06:33:44;;;;;;;;;;;;;;;18.42;nan;98187.03;5006790;28;19953;-66
2023/06/28 06:36:12;;;;;;;;;;;;;;;18.29;nan;98189.09;4990916;28;20371;-66
2023/06/28 06:38:40;;;;;;;;;;;;;;;18.16;nan;98190.34;5004637;28;19926;-66
2023/06/28 06:41:08;;;;;;;;;;;;;;;17.93;nan;98192.09;4988472;28;19936;-66
2023/06/28 06:43:36;;;;;;;;;;;;;;;18.16;nan;98197.78;5000105;28;19967;-66
2023/06/28 06:46:04;;;;;;;;;;;;;;;18.08;nan;98190.53;4993119;28;19926;-66
2023/06/28 06:48:32;;;;;;;;;;;;;;;18.08;nan;98202.31;5006667;28;20052;-67
2023/06/28 06:51:05;;;;;;;;;;;;;;;18.17;nan;98199.41;4999727;28;20379;-67
2023/06/28 06:53:33;;;;;;;;;;;;;;;18.11;nan;98198.88;5005569;28;20091;-67
2023/06/28 06:56:01;;;;;;;;;;;;;;;18.18;nan;98192.75;5008348;28;20330;-65
2023/06/28 06:58:29;;;;;;;;;;;;;;;18.39;nan;98200.72;4989702;28;19930;-65
2023/06/28 07:00:56;;;;;;;;;;;;;;;18.46;nan;98203.66;5011424;28;19926;-66
2023/06/28 07:03:25;;;;;;;;;;;;;;;18.38;nan;98204.66;4991021;28;19969;-66
2023/06/28 07:05:53;;;;;;;;;;;;;;;18.24;nan;98208.63;4999797;28;19949;-66
2023/06/28 07:08:22;;;;;;;;;;;;;;;18.41;nan;98212.16;4998964;28;19925;-65
2023/06/28 07:10:50;;;;;;;;;;;;;;;18.52;nan;98210.47;4998666;28;20012;-66
2023/06/28 07:13:18;;;;;;;;;;;;;;;18.36;nan;98198.69;5003915;28;19969;-68
2023/06/28 07:15:45;;;;;;;;;;;;;;;18.42;nan;98202.75;5011533;28;19929;-67
2023/06/28 07:18:13;;;;;;;;;;;;;;;18.43;nan;98196.09;4998707;28;19925;-66
2023/06/28 07:20:41;;;;;;;;;;;;;;;18.57;nan;98189.00;5003993;28;19952;-68
2023/06/28 07:23:09;;;;;;;;;;;;;;;18.96;nan;98191.88;5006048;28;19937;-66
2023/06/28 07:25:39;;;;;;;;;;;;;;;18.96;nan;98189.13;5006529;28;20458;-65
2023/06/28 07:28:07;;;;;;;;;;;;;;;18.74;nan;98185.06;5004721;28;20017;-66
2023/06/28 07:30:49;;;;;;;;;;;;;;;18.77;nan;98178.06;4992036;28;20020;-66
2023/06/28 07:33:17;;;;;;;;;;;;;;;18.51;nan;98178.63;5006602;28;20011;-65
2023/06/28 07:35:45;;;;;;;;;;;;;;;18.55;nan;98174.00;5008225;28;19925;-65
2023/06/28 07:38:13;;;;;;;;;;;;;;;18.42;nan;98184.28;4998110;28;19936;-66
2023/06/28 07:40:43;;;;;;;;;;;;;;;18.61;nan;98183.56;4984796;28;19930;-65
2023/06/28 07:43:11;;;;;;;;;;;;;;;18.71;nan;98187.78;5002502;28;19942;-65
2023/06/28 07:45:39;;;;;;;;;;;;;;;18.67;nan;98184.91;5005115;28;19940;-65
2023/06/28 07:48:07;;;;;;;;;;;;;;;18.70;nan;98186.97;5004994;28;19976;-65
2023/06/28 07:50:35;;;;;;;;;;;;;;;18.64;nan;98196.59;5007222;28;20020;-66
2023/06/28 07:53:03;;;;;;;;;;;;;;;18.75;nan;98192.19;5006171;28;19926;-65
2023/06/28 07:55:31;;;;;;;;;;;;;;;18.75;nan;98183.13;5001409;28;19930;-65
2023/06/28 07:58:01;;;;;;;;;;;;;;;18.76;nan;98182.00;5001636;28;19933;-66
2023/06/28 08:00:30;;;;;;;;;;;;;;;18.97;nan;98176.97;5001895;28;19930;-65
2023/06/28 08:02:59;;;;;;;;;;;;;;;19.15;nan;98169.06;5007694;28;19936;-67
2023/06/28 08:05:26;;;;;;;;;;;;;;;19.62;nan;98177.13;5006627;28;19925;-66
2023/06/28 08:07:55;;;;;;;;;;;;;;;19.47;nan;98180.75;5006031;28;19979;-67
2023/06/28 08:10:23;;;;;;;;;;;;;;;19.47;nan;98182.69;5001473;28;19983;-67
2023/06/28 08:12:54;;;;;;;;;;;;;;;19.51;nan;98180.81;5004206;28;20406;-67
2023/06/28 08:15:23;;;;;;;;;;;;;;;19.48;nan;98187.06;5004884;28;20024;-67
2023/06/28 08:17:51;;;;;;;;;;;;;;;19.40;nan;98179.81;5005635;28;19925;-67
2023/06/28 08:20:19;;;;;;;;;;;;;;;19.38;nan;98178.19;5000197;28;19940;-67
2023/06/28 08:22:46;;;;;;;;;;;;;;;19.18;nan;98179.38;4988222;28;19932;-68
2023/06/28 08:25:14;;;;;;;;;;;;;;;19.20;nan;98177.03;5006228;28;19925;-67
2023/06/28 08:27:42;;;;;;;;;;;;;;;19.21;nan;98178.63;5001477;28;19931;-69
2023/06/28 08:30:10;;;;;;;;;;;;;;;19.04;nan;98182.59;4990587;28;20017;-67
2023/06/28 08:32:40;;;;;;;;;;;;;;;19.03;nan;98188.50;5007192;28;19976;-67
2023/06/28 08:35:09;;;;;;;;;;;;;;;18.99;nan;98180.13;4990410;28;20362;-68
2023/06/28 08:37:37;;;;;;;;;;;;;;;18.88;nan;98178.31;5002269;28;20029;-67
2023/06/28 08:40:06;;;;;;;;;;;;;;;18.99;nan;98182.09;5004136;28;20389;-67
2023/06/28 08:42:34;;;;;;;;;;;;;;;19.10;nan;98172.09;5001210;28;19976;-67
2023/06/28 08:45:02;;;;;;;;;;;;;;;18.99;nan;98179.34;5001596;28;19926;-67
2023/06/28 08:47:31;;;;;;;;;;;;;;;19.05;nan;98184.19;4999828;28;19929;-67
2023/06/28 08:50:00;;;;;;;;;;;;;;;19.03;nan;98180.22;4989347;28;19925;-67
2023/06/28 08:52:28;;;;;;;;;;;;;;;19.22;nan;98174.72;4997319;28;19965;-67
2023/06/28 08:54:55;;;;;;;;;;;;;;;19.29;nan;98185.09;5006179;28;19926;-66
2023/06/28 08:57:23;;;;;;;;;;;;;;;19.38;nan;98178.19;5006417;28;19934;-68
2023/06/28 08:59:51;;;;;;;;;;;;;;;19.52;nan;98172.19;4996629;28;19979;-68
2023/06/28 09:02:20;;;;;;;;;;;;;;;19.56;nan;98175.03;5010651;28;19929;-67
2023/06/28 09:04:49;;;;;;;;;;;;;;;19.53;nan;98172.97;5008181;28;20291;-69
2023/06/28 09:07:18;;;;;;;;;;;;;;;19.54;nan;98174.56;5003215;28;19992;-71
2023/06/28 09:09:47;;;;;;;;;;;;;;;19.41;nan;98170.38;5006685;28;19926;-67
2023/06/28 09:12:15;;;;;;;;;;;;;;;19.49;nan;98161.88;4988869;28;19991;-68
2023/06/28 09:14:43;;;;;;;;;;;;;;;19.50;nan;98177.28;5007656;28;19926;-68
2023/06/28 09:17:11;;;;;;;;;;;;;;;19.61;nan;98167.28;4997002;28;20413;-67
2023/06/28 09:19:39;;;;;;;;;;;;;;;19.66;nan;98170.91;4995423;28;19926;-67
2023/06/28 09:22:08;;;;;;;;;;;;;;;19.88;nan;98167.38;5014428;28;20286;-67
2023/06/28 09:24:38;;;;;;;;;;;;;;;19.68;nan;98163.06;4989651;28;19995;-67
2023/06/28 09:27:06;;;;;;;;;;;;;;;19.79;nan;98164.06;5011139;28;19933;-68
2023/06/28 09:29:34;;;;;;;;;;;;;;;19.88;nan;98165.41;5006508;28;19929;-68
2023/06/28 09:32:02;;;;;;;;;;;;;;;19.71;nan;98168.66;5007988;28;19933;-69
2023/06/28 09:34:30;;;;;;;;;;;;;;;19.76;nan;98168.34;4999176;28;20041;-68
2023/06/28 09:36:59;;;;;;;;;;;;;;;19.96;nan;98169.09;5009952;28;20453;-72
2023/06/28 09:39:27;;;;;;;;;;;;;;;20.27;nan;98170.81;5010518;28;20048;-68
2023/06/28 09:41:56;;;;;;;;;;;;;;;20.65;nan;98158.03;5011142;28;19925;-67
2023/06/28 09:44:27;;;;;;;;;;;;;;;20.54;nan;98165.34;5011754;28;20395;-68
2023/06/28 09:47:00;;;;;;;;;;;;;;;20.24;nan;98163.28;5007007;28;20402;-68
2023/06/28 09:49:27;;;;;;;;;;;;;;;20.30;nan;98166.53;5007155;28;19926;-69
2023/06/28 09:51:59;;;;;;;;;;;;;;;20.45;nan;98173.06;5005206;28;19933;-69
2023/06/28 09:54:30;;;;;;;;;;;;;;;20.36;nan;98159.53;5007314;28;19933;-67
2023/06/28 09:57:00;;;;;;;;;;;;;;;20.40;nan;98160.38;5006003;28;19926;-69
2023/06/28 09:59:28;;;;;;;;;;;;;;;20.18;nan;98153.69;4990636;28;20393;-68
2023/06/28 10:02:04;;;;;;;;;;;;;;;20.10;nan;98157.53;5010763;28;19925;-68
2023/06/28 10:04:32;;;;;;;;;;;;;;;20.07;nan;98159.03;5009908;28;19968;-70
2023/06/28 10:07:02;;;;;;;;;;;;;;;20.06;nan;98148.38;5008059;28;19960;-68
2023/06/28 10:09:33;;;;;;;;;;;;;;;20.01;nan;98154.19;5007900;28;20365;-68
2023/06/28 10:12:02;;;;;;;;;;;;;;;20.13;nan;98146.56;5003153;28;21469;-72
2023/06/28 10:14:31;;;;;;;;;;;;;;;20.19;nan;98143.47;5002573;28;19976;-70
2023/06/28 10:17:00;;;;;;;;;;;;;;;20.03;nan;98147.16;4989102;28;19969;-70
2023/06/28 10:19:27;;;;;;;;;;;;;;;20.15;nan;98148.94;5002315;28;20377;-73
2023/06/28 10:21:55;;;;;;;;;;;;;;;20.25;nan;98153.84;4993605;28;19979;-69
2023/06/28 10:24:23;;;;;;;;;;;;;;;20.31;nan;98143.28;5010751;28;19968;-67
2023/06/28 10:26:51;;;;;;;;;;;;;;;20.56;nan;98138.16;4995363;28;19960;-68
2023/06/28 10:29:20;;;;;;;;;;;;;;;20.63;nan;98130.00;5002971;28;20407;-67
2023/06/28 10:31:48;;;;;;;;;;;;;;;20.61;nan;98132.31;4985948;28;20364;-67
2023/06/28 10:34:17;;;;;;;;;;;;;;;20.73;nan;98136.84;5007321;28;19968;-68
2023/06/28 10:36:45;;;;;;;;;;;;;;;20.60;nan;98130.72;5012857;28;19929;-70
2023/06/28 10:39:13;;;;;;;;;;;;;;;20.52;nan;98135.38;5007123;28;20347;-68
2023/06/28 10:41:40;;;;;;;;;;;;;;;20.61;nan;98132.31;5012832;28;20346;-69
2023/06/28 10:44:08;;;;;;;;;;;;;;;20.55;nan;98129.09;5005494;28;19925;-68
2023/06/28 10:46:37;;;;;;;;;;;;;;;20.58;nan;98136.63;5008943;28;20374;-68
2023/06/28 10:49:05;;;;;;;;;;;;;;;20.53;nan;98136.94;5010754;28;19925;-68
2023/06/28 10:51:34;;;;;;;;;;;;;;;20.62;nan;98133.94;5011160;28;19956;-68
2023/06/28 10:54:09;;;;;;;;;;;;;;;20.71;nan;98137.19;4991948;28;19976;-66
2023/06/28 10:56:37;;;;;;;;;;;;;;;20.84;nan;98135.03;4986503;28;19991;-68
2023/06/28 10:59:06;;;;;;;;;;;;;;;20.91;nan;98129.59;5005186;28;19933;-68
2023/06/28 11:01:35;;;;;;;;;;;;;;;20.98;nan;98123.38;4988038;28;19957;-67
2023/06/28 11:04:17;;;;;;;;;;;;;;;20.92;nan;98123.69;5002330;28;20025;-68
2023/06/28 11:06:45;;;;;;;;;;;;;;;20.92;nan;98126.44;5009458;28;19988;-68
2023/06/28 11:09:14;;;;;;;;;;;;;;;21.01;nan;98123.41;4986583;28;20330;-67
2023/06/28 11:11:42;;;;;;;;;;;;;;;20.93;nan;98130.81;5012026;28;19937;-67
2023/06/28 11:14:17;;;;;;;;;;;;;;;20.79;nan;98124.31;5009868;28;20378;-67
2023/06/28 11:16:47;;;;;;;;;;;;;;;20.77;nan;98119.13;5009890;28;20028;-67
2023/06/28 11:19:18;;;;;;;;;;;;;;;20.83;nan;98130.69;5004982;28;19971;-68
2023/06/28 11:21:47;;;;;;;;;;;;;;;20.76;nan;98127.81;5005640;28;20508;-68
2023/06/28 11:24:24;;;;;;;;;;;;;;;20.88;nan;98128.41;5011449;28;19929;-68
2023/06/28 11:26:52;;;;;;;;;;;;;;;21.02;nan;98118.69;5005392;28;19929;-68
2023/06/28 11:29:20;;;;;;;;;;;;;;;20.96;nan;98131.25;5006140;28;19925;-71
2023/06/28 11:31:48;;;;;;;;;;;;;;;21.21;nan;98120.50;4993641;28;19933;-70
2023/06/28 11:34:18;;;;;;;;;;;;;;;21.35;nan;98120.69;5000311;28;19933;-69
2023/06/28 11:36:46;;;;;;;;;;;;;;;21.43;nan;98125.13;5003407;28;20020;-69
2023/06/28 11:39:14;;;;;;;;;;;;;;;21.19;nan;98120.88;5009932;28;20069;-70
2023/06/28 11:41:42;;;;;;;;;;;;;;;21.41;nan;98108.13;4988839;28;19934;-69
2023/06/28 11:44:11;;;;;;;;;;;;;;;21.47;nan;98120.47;4991799;28;19976;-70
2023/06/28 11:46:38;;;;;;;;;;;;;;;21.26;nan;98117.41;5011518;28;19925;-70
2023/06/28 11:49:06;;;;;;;;;;;;;;;21.21;nan;98121.31;5009328;28;19980;-70
2023/06/28 11:51:36;;;;;;;;;;;;;;;21.17;nan;98126.00;4980438;28;19961;-70
2023/06/28 11:54:05;;;;;;;;;;;;;;;21.15;nan;98125.56;5008796;28;19957;-69
2023/06/28 11:56:34;;;;;;;;;;;;;;;21.20;nan;98122.47;5009904;28;20635;-69
2023/06/28 11:59:11;;;;;;;;;;;;;;;21.11;nan;98122.75;4989736;28;19930;-69
2023/06/28 12:01:39;;;;;;;;;;;;;;;21.07;nan;98121.13;5005160;28;19925;-69
2023/06/28 12:04:14;;;;;;;;;;;;;;;21.18;nan;98122.03;5007999;28;19933;-69
2023/06/28 12:06:44;;;;;;;;;;;;;;;21.46;nan;98124.38;5006659;28;19936;-69
2023/06/28 12:09:19;;;;;;;;;;;;;;;21.57;nan;98122.53;5000749;28;20334;-69
2023/06/28 12:11:50;;;;;;;;;;;;;;;21.66;nan;98119.44;5006778;28;19941;-69
2023/06/28 12:14:18;;;;;;;;;;;;;;;21.70;nan;98120.28;5005538;28;19933;-69
2023/06/28 12:16:46;;;;;;;;;;;;;;;21.69;nan;98118.72;5008615;28;20429;-69
2023/06/28 12:19:15;;;;;;;;;;;;;;;21.58;nan;98118.59;5009106;28;19933;-69
2023/06/28 12:21:44;;;;;;;;;;;;;;;21.55;nan;98124.06;5001861;28;20022;-69
2023/06/28 12:24:13;;;;;;;;;;;;;;;21.58;nan;98128.84;5004493;28;20323;-69
2023/06/28 12:26:43;;;;;;;;;;;;;;;21.59;nan;98122.94;4991566;28;20036;-69
2023/06/28 12:29:11;;;;;;;;;;;;;;;21.65;nan;98115.91;5002499;28;20025;-69
2023/06/28 12:31:40;;;;;;;;;;;;;;;21.75;nan;98117.19;5006120;28;19960;-70
2023/06/28 12:34:08;;;;;;;;;;;;;;;21.55;nan;98113.81;5000332;28;19925;-69
2023/06/28 12:36:36;;;;;;;;;;;;;;;21.52;nan;98116.53;5003312;28;19932;-69
2023/06/28 12:39:05;;;;;;;;;;;;;;;21.32;nan;98111.19;5000866;28;19941;-69
2023/06/28 12:41:33;;;;;;;;;;;;;;;21.41;nan;98102.59;5005658;28;19980;-69
2023/06/28 12:44:01;;;;;;;;;;;;;;;21.25;nan;98105.53;5008264;28;19972;-69
2023/06/28 12:46:29;;;;;;;;;;;;;;;21.27;nan;98105.19;5003820;28;19930;-69
2023/06/28 12:48:57;;;;;;;;;;;;;;;21.22;nan;98111.84;4988704;28;20329;-69
2023/06/28 12:51:27;;;;;;;;;;;;;;;21.23;nan;98112.63;5006312;28;20009;-69
2023/06/28 12:53:56;;;;;;;;;;;;;;;21.05;nan;98113.22;4997145;28;19934;-69
2023/06/28 12:56:26;;;;;;;;;;;;;;;21.04;nan;98111.63;5005529;28;19925;-69
2023/06/28 12:58:54;;;;;;;;;;;;;;;21.06;nan;98108.47;5011451;28;19933;-69
2023/06/28 13:01:22;;;;;;;;;;;;;;;21.16;nan;98107.81;5013652;28;19926;-69
2023/06/28 13:03:54;;;;;;;;;;;;;;;21.22;nan;98109.06;4983667;28;20290;-69
2023/06/28 13:06:23;;;;;;;;;;;;;;;21.32;nan;98105.69;5009627;28;19933;-68
2023/06/28 13:08:52;;;;;;;;;;;;;;;21.40;nan;98098.25;5005943;28;20017;-69
2023/06/28 13:11:23;;;;;;;;;;;;;;;21.50;nan;98099.53;5003833;28;19933;-69
2023/06/28 13:13:55;;;;;;;;;;;;;;;21.49;nan;98092.44;5008948;28;19925;-69
2023/06/28 13:16:23;;;;;;;;;;;;;;;21.51;nan;98084.53;5010305;28;19929;-69